This is the latest recevied weather packets stored in our database for station/object SA6GOM-3. If no packets are shown the sender has not sent any weather packets the latest 10 day(s).
| Time | Temp. | Humidity | Pressure | Rain* | Wind** | Luminosity | Snow |
|---|---|---|---|---|---|---|---|
| 1778142934 | 27.78° C | 22% | 1016.7 hPa | - | - | - | - |
| 1778139334 | 23.33° C | 27% | 1016.3 hPa | - | - | - | - |
| 1778135734 | 22.78° C | 28% | 1016.3 hPa | - | - | - | - |
| 1778132134 | 20.56° C | 28% | 1016 hPa | - | - | - | - |
| 1778128534 | 17.22° C | 33% | 1015.7 hPa | - | - | - | - |
| 1778124933 | -1.67° C | 74% | 1015.9 hPa | - | - | - | - |
| 1778121334 | -1.67° C | 74% | 1015.6 hPa | - | - | - | - |
| 1778117733 | -1.11° C | 71% | 1015.1 hPa | - | - | - | - |
| 1778114133 | -0.56° C | 70% | 1014.9 hPa | - | - | - | - |
| 1778110533 | 1.11° C | 67% | 1014.5 hPa | - | - | - | - |
| 1778106933 | 2.78° C | 66% | 1014.1 hPa | - | - | - | - |
| 1778103333 | 3.33° C | 63% | 1013.6 hPa | - | - | - | - |
| 1778099733 | 5° C | 58% | 1013.2 hPa | - | - | - | - |
| 1778096133 | 6.11° C | 55% | 1013 hPa | - | - | - | - |
| 1778092532 | 8.33° C | 47% | 1012.4 hPa | - | - | - | - |
| 1778088949 | 10.56° C | 41% | 1012.1 hPa | - | - | - | - |
| 1778085348 | 12.22° C | 33% | 1011.9 hPa | - | - | - | - |
| 1778081748 | 13.89° C | 31% | 1011.8 hPa | - | - | - | - |
| 1778078148 | 15.56° C | 28% | 1011.9 hPa | - | - | - | - |
| 1778074548 | 16.67° C | 25% | 1012.1 hPa | - | - | - | - |
| 1778070948 | 17.78° C | 26% | 1012 hPa | - | - | - | - |
| 1778067348 | 18.33° C | 26% | 1012.3 hPa | - | - | - | - |
| 1778063748 | 18.33° C | 22% | 1012.7 hPa | - | - | - | - |
| 1778060148 | 17.78° C | 23% | 1013.1 hPa | - | - | - | - |
| 1778056548 | 25° C | 15% | 1013.4 hPa | - | - | - | - |
* Rain since midnight (hover to see other rain measurements)
** Current wind speed in m/s (hover to see current wind gust speed)